createdAt,value
2022-11-20T00:01:24.890Z,98902.94
2022-11-20T00:03:53.980Z,98895.00
2022-11-20T00:06:22.188Z,98890.69
2022-11-20T00:08:49.759Z,98889.06
2022-11-20T00:11:22.820Z,98889.19
2022-11-20T00:13:52.617Z,98895.37
2022-11-20T00:16:22.392Z,98895.34
2022-11-20T00:18:49.910Z,98902.28
2022-11-20T00:21:19.642Z,98903.25
2022-11-20T00:23:47.046Z,98912.63
2022-11-20T00:26:16.484Z,98908.12
2022-11-20T00:28:44.448Z,98900.19
2022-11-20T00:31:14.822Z,98892.53
2022-11-20T00:33:43.595Z,98902.72
2022-11-20T00:36:13.956Z,98926.13
2022-11-20T00:38:42.085Z,98924.38
2022-11-20T00:41:11.214Z,98919.22
2022-11-20T00:43:38.844Z,98907.88
2022-11-20T00:46:13.802Z,98887.81
2022-11-20T00:48:40.798Z,98898.72
2022-11-20T00:51:08.496Z,98898.78
2022-11-20T00:53:35.581Z,98888.25
2022-11-20T00:56:05.253Z,98890.34
2022-11-20T00:58:38.050Z,98890.22
2022-11-20T01:01:31.141Z,98883.19
2022-11-20T01:04:01.018Z,98879.81
2022-11-20T01:06:36.801Z,98882.59
2022-11-20T01:09:13.912Z,98891.53
2022-11-20T01:11:43.315Z,98897.84
2022-11-20T01:14:13.888Z,98902.22
2022-11-20T01:16:43.522Z,98917.16
2022-11-20T01:19:17.478Z,98915.59
2022-11-20T01:21:46.566Z,98917.59
2022-11-20T01:24:16.421Z,98926.00
2022-11-20T01:26:45.164Z,98916.25
2022-11-20T01:29:17.855Z,98907.47
2022-11-20T01:31:45.669Z,98909.03
2022-11-20T01:34:15.467Z,98911.63
2022-11-20T01:36:43.062Z,98908.06
2022-11-20T01:39:15.686Z,98904.34
2022-11-20T01:42:05.727Z,98907.22
2022-11-20T01:45:02.208Z,98903.06
2022-11-20T01:47:45.126Z,98906.72
2022-11-20T01:50:23.515Z,98899.66
2022-11-20T01:53:00.851Z,98889.28
2022-11-20T01:55:34.208Z,98888.31
2022-11-20T01:58:03.497Z,98883.09
2022-11-20T02:00:31.222Z,98887.78
2022-11-20T02:03:01.667Z,98894.75
2022-11-20T02:05:37.043Z,98895.37
2022-11-20T02:08:06.807Z,98896.34
2022-11-20T02:10:35.923Z,98897.94
2022-11-20T02:13:22.176Z,98899.94
2022-11-20T02:15:50.486Z,98887.91
2022-11-20T02:18:19.845Z,98890.53
2022-11-20T02:20:51.062Z,98887.47
2022-11-20T02:23:29.370Z,98897.84
2022-11-20T02:25:58.452Z,98906.38
2022-11-20T02:28:25.880Z,98897.78
2022-11-20T02:30:52.887Z,98880.87
2022-11-20T02:33:19.903Z,98882.34
2022-11-20T02:35:47.738Z,98885.91
2022-11-20T02:38:16.056Z,98881.78
2022-11-20T02:40:43.225Z,98882.50
2022-11-20T02:43:11.173Z,98880.00
2022-11-20T02:45:38.945Z,98875.31
2022-11-20T02:48:08.160Z,98878.63
2022-11-20T02:50:39.384Z,98877.22
2022-11-20T02:53:06.853Z,98879.81
2022-11-20T02:55:34.029Z,98886.78
2022-11-20T02:58:01.337Z,98881.16
2022-11-20T03:00:28.377Z,98872.56
2022-11-20T03:02:55.364Z,98869.41
2022-11-20T03:05:22.712Z,98855.47
2022-11-20T03:07:50.008Z,98847.16
2022-11-20T03:10:17.095Z,98846.09
2022-11-20T03:12:44.403Z,98858.72
2022-11-20T03:15:11.618Z,98864.75
2022-11-20T03:17:38.695Z,98857.09
2022-11-20T03:20:06.946Z,98868.06
2022-11-20T03:22:34.034Z,98866.44
2022-11-20T03:25:01.047Z,98887.19
2022-11-20T03:27:28.328Z,98887.34
2022-11-20T03:29:55.328Z,98888.09
2022-11-20T03:32:22.326Z,98886.97
2022-11-20T03:34:49.612Z,98876.34
2022-11-20T03:37:16.640Z,98870.81
2022-11-20T03:39:43.644Z,98880.09
2022-11-20T03:42:30.980Z,98863.19
2022-11-20T03:44:58.020Z,98866.94
2022-11-20T03:47:25.352Z,98869.53
2022-11-20T03:49:52.312Z,98875.50
2022-11-20T03:52:19.364Z,98878.69
2022-11-20T03:54:46.674Z,98889.22
2022-11-20T03:57:13.700Z,98883.91
2022-11-20T03:59:40.711Z,98879.72
2022-11-20T04:02:08.100Z,98867.81
2022-11-20T04:04:35.553Z,98862.19
2022-11-20T04:07:03.350Z,98855.47
2022-11-20T04:09:30.413Z,98851.16
2022-11-20T04:11:57.693Z,98842.72
2022-11-20T04:14:24.732Z,98841.31
2022-11-20T04:16:51.816Z,98825.13
2022-11-20T04:19:19.599Z,98821.78
2022-11-20T04:21:46.816Z,98825.13
2022-11-20T04:24:14.014Z,98824.31
2022-11-20T04:26:41.839Z,98835.78
2022-11-20T04:29:12.474Z,98836.50
2022-11-20T04:31:39.492Z,98839.03
2022-11-20T04:34:08.152Z,98830.38
2022-11-20T04:36:35.499Z,98836.28
2022-11-20T04:39:05.637Z,98829.25
2022-11-20T04:41:35.683Z,98812.09
2022-11-20T04:44:04.786Z,98822.19
2022-11-20T04:46:41.286Z,98812.87
2022-11-20T04:49:09.723Z,98824.63
2022-11-20T04:51:36.788Z,98815.75
2022-11-20T04:54:04.134Z,98818.75
2022-11-20T04:56:31.494Z,98799.16
2022-11-20T04:59:02.498Z,98800.06
2022-11-20T05:01:29.732Z,98811.34
2022-11-20T05:03:57.103Z,98819.22
2022-11-20T05:06:24.202Z,98820.00
2022-11-20T05:08:51.316Z,98820.03
2022-11-20T05:11:21.216Z,98826.91
2022-11-20T05:13:49.355Z,98815.75
2022-11-20T05:16:21.991Z,98814.25
2022-11-20T05:18:50.039Z,98809.50
2022-11-20T05:21:17.725Z,98829.63
2022-11-20T05:23:45.715Z,98831.38
2022-11-20T05:26:16.261Z,98821.44
2022-11-20T05:28:43.427Z,98814.72
2022-11-20T05:31:26.600Z,98811.09
2022-11-20T05:33:56.731Z,98800.22
2022-11-20T05:36:23.789Z,98799.59
2022-11-20T05:38:51.524Z,98785.75
2022-11-20T05:41:21.460Z,98787.59
2022-11-20T05:43:50.000Z,98792.38
2022-11-20T05:46:22.306Z,98804.03
2022-11-20T05:48:52.354Z,98805.63
2022-11-20T05:51:20.786Z,98813.28
2022-11-20T05:53:48.795Z,98815.81
2022-11-20T05:56:19.090Z,98819.53
2022-11-20T05:58:46.663Z,98816.66
2022-11-20T06:01:25.039Z,98804.25
2022-11-20T06:03:53.792Z,98820.69
2022-11-20T06:06:21.436Z,98828.69
2022-11-20T06:08:49.400Z,98814.97
2022-11-20T06:11:17.503Z,98813.41
2022-11-20T06:13:45.303Z,98821.09
2022-11-20T06:16:14.591Z,98817.66
2022-11-20T06:18:41.922Z,98821.00
2022-11-20T06:21:11.828Z,98824.63
2022-11-20T06:23:39.423Z,98817.31
2022-11-20T06:26:12.371Z,98823.97
2022-11-20T06:28:42.337Z,98824.97
2022-11-20T06:31:12.966Z,98825.63
2022-11-20T06:33:40.333Z,98842.63
2022-11-20T06:36:10.809Z,98852.13
2022-11-20T06:38:39.894Z,98851.06
2022-11-20T06:41:08.399Z,98852.25
2022-11-20T06:43:35.383Z,98862.06
2022-11-20T06:46:02.957Z,98866.34
2022-11-20T06:48:30.398Z,98860.91
2022-11-20T06:50:57.724Z,98857.87
2022-11-20T06:53:25.649Z,98850.91
2022-11-20T06:55:53.597Z,98847.63
2022-11-20T06:58:20.647Z,98842.13
2022-11-20T07:00:48.004Z,98841.31
2022-11-20T07:03:15.028Z,98835.09
2022-11-20T07:05:42.126Z,98843.91
2022-11-20T07:08:09.937Z,98842.44
2022-11-20T07:10:37.156Z,98850.69
2022-11-20T07:13:04.430Z,98861.78
2022-11-20T07:15:31.779Z,98869.62
2022-11-20T07:18:02.208Z,98862.34
2022-11-20T07:20:29.474Z,98871.97
2022-11-20T07:22:58.224Z,98858.94
2022-11-20T07:25:26.881Z,98857.13
2022-11-20T07:27:54.088Z,98866.84
2022-11-20T07:30:21.790Z,98874.66
2022-11-20T07:32:51.878Z,98874.84
2022-11-20T07:35:19.188Z,98870.72
2022-11-20T07:37:46.796Z,98868.41
2022-11-20T07:40:14.728Z,98871.72
2022-11-20T07:42:52.997Z,98873.53
2022-11-20T07:45:22.147Z,98870.12
2022-11-20T07:47:49.146Z,98867.50
2022-11-20T07:50:17.055Z,98868.41
2022-11-20T07:52:44.686Z,98868.78
2022-11-20T07:55:12.113Z,98870.31
2022-11-20T07:57:39.144Z,98867.91
2022-11-20T08:00:10.052Z,98865.09
2022-11-20T08:02:42.821Z,98861.06
2022-11-20T08:05:10.802Z,98855.66
2022-11-20T08:07:39.817Z,98849.97
2022-11-20T08:10:08.864Z,98838.12
2022-11-20T08:12:54.640Z,98845.13
2022-11-20T08:15:22.001Z,98849.53
2022-11-20T08:18:15.568Z,98849.91
2022-11-20T08:20:36.498Z,98852.22
2022-11-20T08:23:08.935Z,98848.84
2022-11-20T08:25:39.428Z,98843.28
2022-11-20T08:28:19.950Z,98844.50
2022-11-20T08:30:47.711Z,98842.97
2022-11-20T08:33:15.093Z,98864.09
2022-11-20T08:35:42.735Z,98868.06
2022-11-20T08:38:10.661Z,98860.78
2022-11-20T08:40:37.974Z,98854.00
2022-11-20T08:43:05.364Z,98871.31
2022-11-20T08:45:34.738Z,98869.28
2022-11-20T08:48:04.065Z,98879.75
2022-11-20T08:50:33.178Z,98880.44
2022-11-20T08:53:06.889Z,98883.28
2022-11-20T08:55:36.622Z,98891.66
2022-11-20T08:58:12.802Z,98904.19
2022-11-20T09:00:40.132Z,98907.66
2022-11-20T09:03:07.615Z,98900.56
2022-11-20T09:05:34.620Z,98899.78
2022-11-20T09:08:01.905Z,98902.19
2022-11-20T09:10:29.136Z,98905.34
2022-11-20T09:12:59.223Z,98902.09
2022-11-20T09:15:27.231Z,98902.31
2022-11-20T09:18:02.187Z,98899.75
2022-11-20T09:20:31.006Z,98899.22
2022-11-20T09:22:58.745Z,98901.03
2022-11-20T09:25:25.971Z,98893.31
2022-11-20T09:27:57.555Z,98893.19
2022-11-20T09:30:25.019Z,98883.88
2022-11-20T09:32:52.306Z,98885.56
2022-11-20T09:35:19.893Z,98882.59
2022-11-20T09:37:47.162Z,98895.87
2022-11-20T09:40:24.847Z,98891.53
2022-11-20T09:43:16.730Z,98889.53
2022-11-20T09:45:51.594Z,98885.19
2022-11-20T09:48:49.257Z,98884.03
2022-11-20T09:51:31.604Z,98888.53
2022-11-20T09:54:09.575Z,98885.50
2022-11-20T09:56:41.841Z,98896.63
2022-11-20T09:59:40.660Z,98887.44
2022-11-20T10:02:18.381Z,98882.34
2022-11-20T10:04:52.995Z,98886.94
2022-11-20T10:07:33.460Z,98875.28
2022-11-20T10:10:01.883Z,98874.59
2022-11-20T10:12:46.499Z,98868.28
2022-11-20T10:15:41.032Z,98853.47
2022-11-20T10:18:29.588Z,98841.47
2022-11-20T10:21:07.108Z,98839.06
2022-11-20T10:23:37.062Z,98838.00
2022-11-20T10:26:17.497Z,98841.81
2022-11-20T10:29:28.713Z,98847.50
2022-11-20T10:32:03.367Z,98848.72
2022-11-20T10:34:43.412Z,98839.12
2022-11-20T10:37:24.457Z,98834.34
2022-11-20T10:40:10.037Z,98828.19
2022-11-20T10:42:44.789Z,98830.75
2022-11-20T10:45:45.347Z,98824.41
2022-11-20T10:48:24.886Z,98828.97
2022-11-20T10:51:13.386Z,98822.38
2022-11-20T10:53:52.086Z,98824.41
2022-11-20T10:56:48.373Z,98826.72
2022-11-20T10:59:36.653Z,98835.59
2022-11-20T11:02:16.849Z,98854.69
2022-11-20T11:04:47.598Z,98864.78
2022-11-20T11:07:23.482Z,98865.59
2022-11-20T11:09:55.812Z,98854.62
2022-11-20T11:12:28.546Z,98854.47
2022-11-20T11:14:58.765Z,98854.25
2022-11-20T11:17:34.969Z,98862.09
2022-11-20T11:20:02.563Z,98867.31
2022-11-20T11:22:34.960Z,98865.81
2022-11-20T11:25:02.824Z,98861.56
2022-11-20T11:27:29.880Z,98870.91
2022-11-20T11:30:14.703Z,98864.69
2022-11-20T11:32:42.624Z,98868.38
2022-11-20T11:35:51.802Z,98860.28
2022-11-20T11:38:40.890Z,98858.66
2022-11-20T11:41:21.146Z,98854.72
2022-11-20T11:44:13.843Z,98850.78
2022-11-20T11:46:50.490Z,98851.78
2022-11-20T11:49:19.637Z,98841.09
2022-11-20T11:51:59.011Z,98840.59
2022-11-20T11:54:42.289Z,98831.00
2022-11-20T11:57:53.714Z,98832.12
2022-11-20T12:00:23.123Z,98835.50
2022-11-20T12:03:05.357Z,98833.56
2022-11-20T12:05:41.202Z,98827.78
2022-11-20T12:08:45.959Z,98836.56
2022-11-20T12:11:31.740Z,98829.94
2022-11-20T12:14:20.749Z,98834.41
2022-11-20T12:16:47.844Z,98834.00
2022-11-20T12:19:15.708Z,98822.72
2022-11-20T12:22:03.366Z,98828.81
2022-11-20T12:24:47.322Z,98828.19
2022-11-20T12:27:20.158Z,98822.41
2022-11-20T12:30:09.269Z,98815.91
2022-11-20T12:33:07.018Z,98818.63
2022-11-20T12:35:37.028Z,98817.97
2022-11-20T12:38:22.699Z,98823.25
2022-11-20T12:41:50.658Z,98816.19
2022-11-20T12:44:56.217Z,98819.03
2022-11-20T12:47:45.968Z,98813.75
2022-11-20T12:50:42.933Z,98821.50
2022-11-20T12:53:58.106Z,98828.25
2022-11-20T12:56:51.139Z,98835.19
2022-11-20T13:00:00.200Z,98835.34
2022-11-20T13:03:08.070Z,98847.25
2022-11-20T13:05:35.290Z,98835.63
2022-11-20T13:08:03.316Z,98834.75
2022-11-20T13:11:08.544Z,98832.38
2022-11-20T13:13:55.561Z,98828.97
2022-11-20T13:16:55.990Z,98837.88
2022-11-20T13:19:23.793Z,98840.75
2022-11-20T13:21:51.680Z,98835.72
2022-11-20T13:24:25.229Z,98834.91
2022-11-20T13:27:13.875Z,98829.41
2022-11-20T13:29:46.489Z,98829.22
2022-11-20T13:32:18.473Z,98814.97
2022-11-20T13:34:57.082Z,98802.84
2022-11-20T13:37:38.586Z,98803.25
2022-11-20T13:40:08.605Z,98792.22
2022-11-20T13:43:08.205Z,98797.81
2022-11-20T13:45:35.212Z,98788.63
2022-11-20T13:48:20.042Z,98792.44
2022-11-20T13:51:07.955Z,98795.44
2022-11-20T13:53:47.240Z,98790.66
2022-11-20T13:56:44.757Z,98792.03
2022-11-20T13:59:40.907Z,98782.59
2022-11-20T14:02:16.124Z,98781.59
2022-11-20T14:04:49.851Z,98779.34
2022-11-20T14:07:19.314Z,98778.28
2022-11-20T14:09:56.104Z,98780.44
2022-11-20T14:12:32.628Z,98785.41
2022-11-20T14:15:00.616Z,98786.19
2022-11-20T14:17:35.876Z,98788.94
2022-11-20T14:20:07.444Z,98797.06
2022-11-20T14:22:34.466Z,98797.13
2022-11-20T14:25:20.225Z,98801.62
2022-11-20T14:27:59.677Z,98806.06
2022-11-20T14:30:30.157Z,98805.28
2022-11-20T14:33:03.318Z,98805.75
2022-11-20T14:35:35.244Z,98804.47
2022-11-20T14:38:03.960Z,98812.28
2022-11-20T14:40:36.836Z,98807.69
2022-11-20T14:43:27.501Z,98811.13
2022-11-20T14:46:03.743Z,98817.28
2022-11-20T14:48:35.211Z,98823.72
2022-11-20T14:51:02.355Z,98821.16
2022-11-20T14:53:29.323Z,98829.19
2022-11-20T14:56:01.686Z,98828.53
2022-11-20T14:58:34.424Z,98829.25
2022-11-20T15:01:05.750Z,98819.84
2022-11-20T15:03:41.049Z,98832.09
2022-11-20T15:06:12.293Z,98824.72
2022-11-20T15:08:39.422Z,98836.13
2022-11-20T15:11:23.911Z,98836.03
2022-11-20T15:13:51.495Z,98835.00
2022-11-20T15:16:24.197Z,98831.97
2022-11-20T15:18:52.213Z,98831.31
2022-11-20T15:21:23.996Z,98832.63
2022-11-20T15:23:51.565Z,98827.63
2022-11-20T15:26:28.979Z,98818.41
2022-11-20T15:28:56.323Z,98815.03
2022-11-20T15:31:24.851Z,98823.06
2022-11-20T15:33:52.211Z,98818.03
2022-11-20T15:36:19.625Z,98825.88
2022-11-20T15:38:46.659Z,98824.19
2022-11-20T15:41:13.739Z,98823.47
2022-11-20T15:43:41.048Z,98825.50
2022-11-20T15:46:13.964Z,98823.09
2022-11-20T15:48:48.201Z,98827.00
2022-11-20T15:51:25.789Z,98825.50
2022-11-20T15:53:53.088Z,98836.38
2022-11-20T15:56:20.124Z,98836.38
2022-11-20T15:58:47.144Z,98830.59
2022-11-20T16:01:20.381Z,98830.91
2022-11-20T16:03:52.628Z,98827.59
2022-11-20T16:06:19.937Z,98825.28
2022-11-20T16:08:47.318Z,98822.88
2022-11-20T16:11:16.904Z,98825.28
2022-11-20T16:14:03.139Z,98827.25
2022-11-20T16:16:33.701Z,98827.50
2022-11-20T16:19:01.253Z,98830.88
2022-11-20T16:21:31.964Z,98840.97
2022-11-20T16:24:04.928Z,98834.34
2022-11-20T16:26:32.677Z,98841.03
2022-11-20T16:29:01.270Z,98840.47
2022-11-20T16:31:28.635Z,98843.19
2022-11-20T16:33:57.956Z,98840.63
2022-11-20T16:36:28.427Z,98835.31
2022-11-20T16:38:57.262Z,98838.50
2022-11-20T16:41:26.813Z,98831.66
2022-11-20T16:43:58.112Z,98831.81
2022-11-20T16:46:27.395Z,98824.91
2022-11-20T16:49:05.886Z,98820.72
2022-11-20T16:51:36.101Z,98835.63
2022-11-20T16:54:08.792Z,98824.63
2022-11-20T16:56:36.295Z,98824.72
2022-11-20T16:59:04.247Z,98818.06
2022-11-20T17:01:32.775Z,98826.94
2022-11-20T17:04:07.272Z,98819.19
2022-11-20T17:06:37.184Z,98819.37
2022-11-20T17:09:04.876Z,98819.63
2022-11-20T17:11:33.497Z,98814.59
2022-11-20T17:14:02.314Z,98806.00
2022-11-20T17:16:29.932Z,98801.66
2022-11-20T17:19:02.892Z,98798.34
2022-11-20T17:21:36.316Z,98786.28
2022-11-20T17:24:05.773Z,98781.16
2022-11-20T17:26:34.545Z,98778.12
2022-11-20T17:29:24.183Z,98771.88
2022-11-20T17:31:51.551Z,98770.28
2022-11-20T17:34:18.629Z,98771.22
2022-11-20T17:36:46.632Z,98772.22
2022-11-20T17:39:15.895Z,98771.22
2022-11-20T17:41:43.364Z,98762.66
2022-11-20T17:44:12.202Z,98762.59
2022-11-20T17:46:39.943Z,98755.25
2022-11-20T17:49:07.562Z,98749.81
2022-11-20T17:51:37.812Z,98743.53
2022-11-20T17:54:07.523Z,98745.16
2022-11-20T17:56:53.902Z,98746.75
2022-11-20T17:59:21.512Z,98753.56
2022-11-20T18:01:48.748Z,98751.63
2022-11-20T18:04:16.850Z,98749.19
2022-11-20T18:06:44.130Z,98755.59
2022-11-20T18:09:12.257Z,98754.88
2022-11-20T18:11:42.199Z,98766.78
2022-11-20T18:14:32.048Z,98769.19
2022-11-20T18:17:03.012Z,98773.69
2022-11-20T18:19:33.292Z,98781.31
2022-11-20T18:22:04.064Z,98780.53
2022-11-20T18:24:32.588Z,98791.25
2022-11-20T18:27:00.609Z,98794.94
2022-11-20T18:29:28.875Z,98792.47
2022-11-20T18:31:55.932Z,98796.91
2022-11-20T18:34:23.532Z,98810.97
2022-11-20T18:36:51.134Z,98808.53
2022-11-20T18:39:18.327Z,98818.94
2022-11-20T18:42:03.960Z,98813.88
2022-11-20T18:44:50.938Z,98821.78
2022-11-20T18:47:19.365Z,98830.41
2022-11-20T18:49:52.773Z,98837.44
2022-11-20T18:52:23.140Z,98836.53
2022-11-20T18:54:51.094Z,98830.56
2022-11-20T18:57:19.977Z,98827.25
2022-11-20T18:59:47.152Z,98818.72
2022-11-20T19:02:17.231Z,98819.72
2022-11-20T19:04:44.450Z,98816.25
2022-11-20T19:07:12.209Z,98819.56
2022-11-20T19:09:44.692Z,98824.84
2022-11-20T19:12:14.709Z,98831.81
2022-11-20T19:14:42.022Z,98832.97
2022-11-20T19:17:11.115Z,98848.84
2022-11-20T19:19:38.188Z,98854.41
2022-11-20T19:22:05.550Z,98858.09
2022-11-20T19:24:32.583Z,98861.47
2022-11-20T19:27:01.196Z,98856.94
2022-11-20T19:29:29.065Z,98851.81
2022-11-20T19:31:58.858Z,98855.34
2022-11-20T19:34:26.125Z,98847.59
2022-11-20T19:36:53.955Z,98836.84
2022-11-20T19:39:21.084Z,98822.25
2022-11-20T19:41:48.121Z,98821.66
2022-11-20T19:44:17.937Z,98818.50
2022-11-20T19:46:45.351Z,98819.34
2022-11-20T19:49:14.248Z,98812.25
2022-11-20T19:51:47.292Z,98814.91
2022-11-20T19:54:14.955Z,98805.41
2022-11-20T19:56:42.370Z,98801.91
2022-11-20T19:59:09.404Z,98799.94
2022-11-20T20:01:36.538Z,98797.34
2022-11-20T20:04:05.543Z,98808.56
2022-11-20T20:06:38.763Z,98814.59
2022-11-20T20:09:08.844Z,98815.41
2022-11-20T20:11:36.352Z,98792.75
2022-11-20T20:14:09.953Z,98788.38
2022-11-20T20:16:37.302Z,98780.53
2022-11-20T20:19:05.757Z,98787.38
2022-11-20T20:21:35.037Z,98780.41
2022-11-20T20:24:02.646Z,98772.47
2022-11-20T20:26:31.931Z,98782.00
2022-11-20T20:29:01.133Z,98785.47
2022-11-20T20:31:30.781Z,98781.19
2022-11-20T20:33:58.118Z,98775.88
2022-11-20T20:36:26.143Z,98766.31
2022-11-20T20:38:59.586Z,98764.56
2022-11-20T20:41:26.770Z,98774.13
2022-11-20T20:44:13.203Z,98775.03
2022-11-20T20:46:41.290Z,98776.81
2022-11-20T20:49:09.457Z,98763.94
2022-11-20T20:51:36.681Z,98776.09
2022-11-20T20:54:04.408Z,98776.09
2022-11-20T20:56:31.905Z,98769.22
2022-11-20T20:59:00.761Z,98768.38
2022-11-20T21:01:30.573Z,98775.19
2022-11-20T21:03:58.354Z,98783.91
2022-11-20T21:06:26.382Z,98787.38
2022-11-20T21:08:53.866Z,98782.34
2022-11-20T21:11:21.297Z,98773.75
2022-11-20T21:13:48.956Z,98771.22
2022-11-20T21:16:19.302Z,98775.56
2022-11-20T21:18:47.045Z,98776.44
2022-11-20T21:21:34.436Z,98776.44
2022-11-20T21:24:02.424Z,98775.59
2022-11-20T21:26:30.123Z,98777.34
2022-11-20T21:28:57.795Z,98768.66
2022-11-20T21:31:26.934Z,98765.25
2022-11-20T21:33:56.181Z,98770.16
2022-11-20T21:36:32.043Z,98772.03
2022-11-20T21:39:00.113Z,98776.44
2022-11-20T21:41:30.201Z,98783.38
2022-11-20T21:44:29.509Z,98787.69
2022-11-20T21:46:47.054Z,98783.38
2022-11-20T21:49:15.306Z,98777.44
2022-11-20T21:51:42.433Z,98778.25
2022-11-20T21:54:10.728Z,98780.81
2022-11-20T21:56:37.758Z,98780.81
2022-11-20T21:59:04.797Z,98782.69
2022-11-20T22:01:32.252Z,98768.84
2022-11-20T22:04:01.827Z,98780.78
2022-11-20T22:06:33.383Z,98772.16
2022-11-20T22:09:02.254Z,98755.62
2022-11-20T22:11:30.731Z,98761.72
2022-11-20T22:14:16.564Z,98754.78
2022-11-20T22:16:43.964Z,98753.03
2022-11-20T22:19:11.073Z,98748.78
2022-11-20T22:21:40.102Z,98748.88
2022-11-20T22:24:08.500Z,98747.91
2022-11-20T22:26:40.156Z,98738.31
2022-11-20T22:29:11.403Z,98736.56
2022-11-20T22:31:38.365Z,98733.13
2022-11-20T22:34:05.375Z,98722.78
2022-11-20T22:36:37.372Z,98723.56
2022-11-20T22:39:05.797Z,98720.97
2022-11-20T22:41:34.629Z,98722.59
2022-11-20T22:44:07.655Z,98715.59
2022-11-20T22:46:36.594Z,98711.22
2022-11-20T22:49:11.040Z,98706.03
2022-11-20T22:51:40.216Z,98709.50
2022-11-20T22:54:07.957Z,98726.84
2022-11-20T22:56:35.176Z,98714.59
2022-11-20T22:59:02.485Z,98712.00
2022-11-20T23:01:32.743Z,98715.50
2022-11-20T23:04:05.231Z,98711.97
2022-11-20T23:06:35.834Z,98712.78
2022-11-20T23:09:05.481Z,98703.34
2022-11-20T23:11:33.365Z,98691.19
2022-11-20T23:14:03.055Z,98685.97
2022-11-20T23:16:31.347Z,98688.59
2022-11-20T23:19:07.070Z,98681.78
2022-11-20T23:21:35.815Z,98685.97
2022-11-20T23:24:03.826Z,98680.78
2022-11-20T23:26:34.653Z,98691.19
2022-11-20T23:29:01.875Z,98688.66
2022-11-20T23:31:31.072Z,98699.06
2022-11-20T23:33:59.018Z,98689.72
2022-11-20T23:36:26.736Z,98693.16
2022-11-20T23:38:54.041Z,98693.19
2022-11-20T23:41:21.080Z,98689.84
2022-11-20T23:43:48.111Z,98699.53
2022-11-20T23:46:16.990Z,98689.22
2022-11-20T23:48:45.453Z,98698.03
2022-11-20T23:51:13.427Z,98694.72
2022-11-20T23:53:40.927Z,98687.94
2022-11-20T23:56:08.305Z,98682.94
2022-11-20T23:58:37.308Z,98689.81
